sensor_id;sensor_type;location;lat;lon;timestamp;temperature;humidity
83102;SHT31;72973;51.784;4.660;2024-01-25T00:00:46;8.93;78.52
83102;SHT31;72973;51.784;4.660;2024-01-25T00:03:13;8.89;78.69
83102;SHT31;72973;51.784;4.660;2024-01-25T00:05:39;8.98;78.41
83102;SHT31;72973;51.784;4.660;2024-01-25T00:08:06;8.95;78.47
83102;SHT31;72973;51.784;4.660;2024-01-25T00:10:32;8.95;78.43
83102;SHT31;72973;51.784;4.660;2024-01-25T00:12:59;8.88;78.47
83102;SHT31;72973;51.784;4.660;2024-01-25T00:15:25;8.85;78.62
83102;SHT31;72973;51.784;4.660;2024-01-25T00:17:51;8.81;78.68
83102;SHT31;72973;51.784;4.660;2024-01-25T00:20:18;8.78;79.01
83102;SHT31;72973;51.784;4.660;2024-01-25T00:22:44;8.72;79.10
83102;SHT31;72973;51.784;4.660;2024-01-25T00:25:11;8.70;79.37
83102;SHT31;72973;51.784;4.660;2024-01-25T00:27:38;8.74;79.00
83102;SHT31;72973;51.784;4.660;2024-01-25T00:30:04;8.78;79.00
83102;SHT31;72973;51.784;4.660;2024-01-25T00:32:31;8.75;78.85
83102;SHT31;72973;51.784;4.660;2024-01-25T00:34:58;8.72;78.85
83102;SHT31;72973;51.784;4.660;2024-01-25T00:37:24;8.74;78.94
83102;SHT31;72973;51.784;4.660;2024-01-25T00:39:51;8.65;78.97
83102;SHT31;72973;51.784;4.660;2024-01-25T00:42:21;8.71;78.99
83102;SHT31;72973;51.784;4.660;2024-01-25T00:44:48;8.61;79.17
83102;SHT31;72973;51.784;4.660;2024-01-25T00:47:15;8.67;79.02
83102;SHT31;72973;51.784;4.660;2024-01-25T00:49:42;8.60;79.00
83102;SHT31;72973;51.784;4.660;2024-01-25T00:52:09;8.51;79.16
83102;SHT31;72973;51.784;4.660;2024-01-25T00:54:36;8.41;79.55
83102;SHT31;72973;51.784;4.660;2024-01-25T00:57:03;8.39;79.97
83102;SHT31;72973;51.784;4.660;2024-01-25T00:59:30;8.34;79.93
83102;SHT31;72973;51.784;4.660;2024-01-25T01:01:58;8.34;79.95
83102;SHT31;72973;51.784;4.660;2024-01-25T01:04:26;8.28;80.15
83102;SHT31;72973;51.784;4.660;2024-01-25T01:06:52;8.25;80.26
83102;SHT31;72973;51.784;4.660;2024-01-25T01:09:19;8.16;80.58
83102;SHT31;72973;51.784;4.660;2024-01-25T01:11:47;8.17;80.57
83102;SHT31;72973;51.784;4.660;2024-01-25T01:14:13;8.14;80.69
83102;SHT31;72973;51.784;4.660;2024-01-25T01:16:40;8.07;80.78
83102;SHT31;72973;51.784;4.660;2024-01-25T01:19:06;8.10;80.72
83102;SHT31;72973;51.784;4.660;2024-01-25T01:21:34;8.12;80.74
83102;SHT31;72973;51.784;4.660;2024-01-25T01:24:02;8.03;80.89
83102;SHT31;72973;51.784;4.660;2024-01-25T01:26:28;8.07;80.73
83102;SHT31;72973;51.784;4.660;2024-01-25T01:28:54;7.99;80.91
83102;SHT31;72973;51.784;4.660;2024-01-25T01:31:21;7.93;81.19
83102;SHT31;72973;51.784;4.660;2024-01-25T01:33:47;7.99;80.83
83102;SHT31;72973;51.784;4.660;2024-01-25T01:36:14;7.96;80.66
83102;SHT31;72973;51.784;4.660;2024-01-25T01:38:41;7.89;81.23
83102;SHT31;72973;51.784;4.660;2024-01-25T01:41:09;7.86;81.28
83102;SHT31;72973;51.784;4.660;2024-01-25T01:43:36;7.91;81.10
83102;SHT31;72973;51.784;4.660;2024-01-25T01:46:12;7.81;80.82
83102;SHT31;72973;51.784;4.660;2024-01-25T01:48:41;7.79;80.83
83102;SHT31;72973;51.784;4.660;2024-01-25T01:51:08;7.75;80.70
83102;SHT31;72973;51.784;4.660;2024-01-25T01:53:36;7.72;81.28
83102;SHT31;72973;51.784;4.660;2024-01-25T01:56:02;7.68;81.08
83102;SHT31;72973;51.784;4.660;2024-01-25T01:58:31;7.71;81.08
83102;SHT31;72973;51.784;4.660;2024-01-25T02:00:59;7.64;81.27
83102;SHT31;72973;51.784;4.660;2024-01-25T02:03:26;7.64;81.24
83102;SHT31;72973;51.784;4.660;2024-01-25T02:05:52;7.54;81.35
83102;SHT31;72973;51.784;4.660;2024-01-25T02:08:19;7.44;81.46
83102;SHT31;72973;51.784;4.660;2024-01-25T02:10:46;7.50;81.31
83102;SHT31;72973;51.784;4.660;2024-01-25T02:13:12;7.47;81.28
83102;SHT31;72973;51.784;4.660;2024-01-25T02:15:38;7.54;80.95
83102;SHT31;72973;51.784;4.660;2024-01-25T02:18:05;7.30;81.12
83102;SHT31;72973;51.784;4.660;2024-01-25T02:20:32;7.19;81.21
83102;SHT31;72973;51.784;4.660;2024-01-25T02:22:59;7.05;81.35
83102;SHT31;72973;51.784;4.660;2024-01-25T02:25:25;7.06;81.53
83102;SHT31;72973;51.784;4.660;2024-01-25T02:27:52;6.92;81.37
83102;SHT31;72973;51.784;4.660;2024-01-25T02:30:18;6.89;81.17
83102;SHT31;72973;51.784;4.660;2024-01-25T02:32:45;6.85;81.33
83102;SHT31;72973;51.784;4.660;2024-01-25T02:35:11;6.79;81.24
83102;SHT31;72973;51.784;4.660;2024-01-25T02:37:38;6.74;81.53
83102;SHT31;72973;51.784;4.660;2024-01-25T02:40:04;6.84;81.79
83102;SHT31;72973;51.784;4.660;2024-01-25T02:42:31;6.91;81.78
83102;SHT31;72973;51.784;4.660;2024-01-25T02:44:58;6.91;82.33
83102;SHT31;72973;51.784;4.660;2024-01-25T02:47:24;6.85;82.18
83102;SHT31;72973;51.784;4.660;2024-01-25T02:49:51;6.84;82.07
83102;SHT31;72973;51.784;4.660;2024-01-25T02:52:17;6.74;82.00
83102;SHT31;72973;51.784;4.660;2024-01-25T02:54:43;6.65;81.72
83102;SHT31;72973;51.784;4.660;2024-01-25T02:57:10;6.55;81.52
83102;SHT31;72973;51.784;4.660;2024-01-25T02:59:36;6.37;81.47
83102;SHT31;72973;51.784;4.660;2024-01-25T03:02:03;6.33;81.66
83102;SHT31;72973;51.784;4.660;2024-01-25T03:04:29;6.30;81.69
83102;SHT31;72973;51.784;4.660;2024-01-25T03:06:56;6.34;82.32
83102;SHT31;72973;51.784;4.660;2024-01-25T03:09:22;6.45;82.43
83102;SHT31;72973;51.784;4.660;2024-01-25T03:11:49;6.38;82.01
83102;SHT31;72973;51.784;4.660;2024-01-25T03:14:16;6.21;82.09
83102;SHT31;72973;51.784;4.660;2024-01-25T03:16:43;6.13;82.31
83102;SHT31;72973;51.784;4.660;2024-01-25T03:19:10;6.09;81.71
83102;SHT31;72973;51.784;4.660;2024-01-25T03:21:37;5.92;81.64
83102;SHT31;72973;51.784;4.660;2024-01-25T03:24:04;5.79;80.79
83102;SHT31;72973;51.784;4.660;2024-01-25T03:26:30;5.56;80.82
83102;SHT31;72973;51.784;4.660;2024-01-25T03:28:57;5.51;81.39
83102;SHT31;72973;51.784;4.660;2024-01-25T03:31:26;5.51;81.45
83102;SHT31;72973;51.784;4.660;2024-01-25T03:33:52;5.43;81.57
83102;SHT31;72973;51.784;4.660;2024-01-25T03:36:19;5.37;81.92
83102;SHT31;72973;51.784;4.660;2024-01-25T03:38:45;5.35;81.58
83102;SHT31;72973;51.784;4.660;2024-01-25T03:41:11;5.27;81.94
83102;SHT31;72973;51.784;4.660;2024-01-25T03:43:38;5.33;82.54
83102;SHT31;72973;51.784;4.660;2024-01-25T03:46:04;5.54;83.58
83102;SHT31;72973;51.784;4.660;2024-01-25T03:48:34;5.59;83.61
83102;SHT31;72973;51.784;4.660;2024-01-25T03:51:00;5.71;83.66
83102;SHT31;72973;51.784;4.660;2024-01-25T03:53:27;5.88;83.94
83102;SHT31;72973;51.784;4.660;2024-01-25T03:55:53;5.96;83.72
83102;SHT31;72973;51.784;4.660;2024-01-25T03:58:20;6.02;83.41
83102;SHT31;72973;51.784;4.660;2024-01-25T04:00:47;5.99;83.10
83102;SHT31;72973;51.784;4.660;2024-01-25T04:03:13;5.86;83.10
83102;SHT31;72973;51.784;4.660;2024-01-25T04:05:40;5.81;82.30
83102;SHT31;72973;51.784;4.660;2024-01-25T04:08:07;5.72;81.96
83102;SHT31;72973;51.784;4.660;2024-01-25T04:10:34;5.71;82.40
83102;SHT31;72973;51.784;4.660;2024-01-25T04:13:00;5.71;82.45
83102;SHT31;72973;51.784;4.660;2024-01-25T04:15:27;5.55;82.00
83102;SHT31;72973;51.784;4.660;2024-01-25T04:17:54;5.44;81.73
83102;SHT31;72973;51.784;4.660;2024-01-25T04:20:22;5.30;81.61
83102;SHT31;72973;51.784;4.660;2024-01-25T04:22:49;5.22;81.78
83102;SHT31;72973;51.784;4.660;2024-01-25T04:25:15;5.24;82.28
83102;SHT31;72973;51.784;4.660;2024-01-25T04:27:42;5.22;82.60
83102;SHT31;72973;51.784;4.660;2024-01-25T04:30:09;5.17;82.18
83102;SHT31;72973;51.784;4.660;2024-01-25T04:32:36;5.06;82.40
83102;SHT31;72973;51.784;4.660;2024-01-25T04:35:03;5.10;82.50
83102;SHT31;72973;51.784;4.660;2024-01-25T04:37:29;5.17;83.05
83102;SHT31;72973;51.784;4.660;2024-01-25T04:39:56;5.22;82.60
83102;SHT31;72973;51.784;4.660;2024-01-25T04:42:22;5.10;82.23
83102;SHT31;72973;51.784;4.660;2024-01-25T04:44:48;4.99;81.83
83102;SHT31;72973;51.784;4.660;2024-01-25T04:47:15;5.12;82.58
83102;SHT31;72973;51.784;4.660;2024-01-25T04:49:41;5.09;82.89
83102;SHT31;72973;51.784;4.660;2024-01-25T04:52:08;5.10;82.62
83102;SHT31;72973;51.784;4.660;2024-01-25T04:54:34;5.07;82.08
83102;SHT31;72973;51.784;4.660;2024-01-25T04:57:01;4.97;81.97
83102;SHT31;72973;51.784;4.660;2024-01-25T04:59:28;4.86;81.96
83102;SHT31;72973;51.784;4.660;2024-01-25T05:01:55;5.01;83.59
83102;SHT31;72973;51.784;4.660;2024-01-25T05:04:23;5.12;83.67
83102;SHT31;72973;51.784;4.660;2024-01-25T05:06:50;5.19;83.61
83102;SHT31;72973;51.784;4.660;2024-01-25T05:09:16;5.23;83.11
83102;SHT31;72973;51.784;4.660;2024-01-25T05:11:43;5.22;83.58
83102;SHT31;72973;51.784;4.660;2024-01-25T05:14:09;5.24;83.42
83102;SHT31;72973;51.784;4.660;2024-01-25T05:16:36;5.19;83.28
83102;SHT31;72973;51.784;4.660;2024-01-25T05:19:02;5.17;82.50
83102;SHT31;72973;51.784;4.660;2024-01-25T05:21:29;4.97;82.42
83102;SHT31;72973;51.784;4.660;2024-01-25T05:23:55;4.95;82.23
83102;SHT31;72973;51.784;4.660;2024-01-25T05:26:22;4.86;82.36
83102;SHT31;72973;51.784;4.660;2024-01-25T05:28:49;4.87;82.40
83102;SHT31;72973;51.784;4.660;2024-01-25T05:31:15;4.85;82.29
83102;SHT31;72973;51.784;4.660;2024-01-25T05:33:42;4.80;82.15
83102;SHT31;72973;51.784;4.660;2024-01-25T05:36:09;4.72;82.33
83102;SHT31;72973;51.784;4.660;2024-01-25T05:38:35;4.62;82.35
83102;SHT31;72973;51.784;4.660;2024-01-25T05:41:02;4.64;82.98
83102;SHT31;72973;51.784;4.660;2024-01-25T05:43:29;4.61;82.42
83102;SHT31;72973;51.784;4.660;2024-01-25T05:45:55;4.54;82.04
83102;SHT31;72973;51.784;4.660;2024-01-25T05:48:21;4.47;82.33
83102;SHT31;72973;51.784;4.660;2024-01-25T05:50:48;4.55;83.01
83102;SHT31;72973;51.784;4.660;2024-01-25T05:53:15;4.71;83.47
83102;SHT31;72973;51.784;4.660;2024-01-25T05:55:45;4.77;83.51
83102;SHT31;72973;51.784;4.660;2024-01-25T05:58:11;4.85;83.51
83102;SHT31;72973;51.784;4.660;2024-01-25T06:00:38;4.86;83.24
83102;SHT31;72973;51.784;4.660;2024-01-25T06:03:04;4.92;83.29
83102;SHT31;72973;51.784;4.660;2024-01-25T06:05:31;4.96;83.81
83102;SHT31;72973;51.784;4.660;2024-01-25T06:08:00;4.92;83.32
83102;SHT31;72973;51.784;4.660;2024-01-25T06:10:26;4.83;82.83
83102;SHT31;72973;51.784;4.660;2024-01-25T06:12:53;4.76;82.45
83102;SHT31;72973;51.784;4.660;2024-01-25T06:15:19;4.65;82.71
83102;SHT31;72973;51.784;4.660;2024-01-25T06:17:46;4.55;82.36
83102;SHT31;72973;51.784;4.660;2024-01-25T06:20:13;4.52;82.81
83102;SHT31;72973;51.784;4.660;2024-01-25T06:22:39;4.41;82.21
83102;SHT31;72973;51.784;4.660;2024-01-25T06:25:06;4.30;81.87
83102;SHT31;72973;51.784;4.660;2024-01-25T06:27:33;4.18;81.80
83102;SHT31;72973;51.784;4.660;2024-01-25T06:30:01;4.18;82.19
83102;SHT31;72973;51.784;4.660;2024-01-25T06:32:27;4.10;82.89
83102;SHT31;72973;51.784;4.660;2024-01-25T06:34:53;4.37;84.34
83102;SHT31;72973;51.784;4.660;2024-01-25T06:37:20;4.62;84.20
83102;SHT31;72973;51.784;4.660;2024-01-25T06:39:46;4.73;83.86
83102;SHT31;72973;51.784;4.660;2024-01-25T06:42:13;4.71;83.88
83102;SHT31;72973;51.784;4.660;2024-01-25T06:44:40;4.79;84.01
83102;SHT31;72973;51.784;4.660;2024-01-25T06:47:06;4.76;83.48
83102;SHT31;72973;51.784;4.660;2024-01-25T06:49:33;4.76;83.21
83102;SHT31;72973;51.784;4.660;2024-01-25T06:51:59;4.73;83.03
83102;SHT31;72973;51.784;4.660;2024-01-25T06:54:25;4.76;83.13
83102;SHT31;72973;51.784;4.660;2024-01-25T06:56:52;4.77;83.23
83102;SHT31;72973;51.784;4.660;2024-01-25T06:59:18;4.72;83.32
83102;SHT31;72973;51.784;4.660;2024-01-25T07:01:45;4.71;83.28
83102;SHT31;72973;51.784;4.660;2024-01-25T07:04:11;4.65;83.01
83102;SHT31;72973;51.784;4.660;2024-01-25T07:06:38;4.54;82.75
83102;SHT31;72973;51.784;4.660;2024-01-25T07:09:04;4.51;82.96
83102;SHT31;72973;51.784;4.660;2024-01-25T07:11:31;4.47;83.34
83102;SHT31;72973;51.784;4.660;2024-01-25T07:13:57;4.65;83.63
83102;SHT31;72973;51.784;4.660;2024-01-25T07:16:24;4.79;83.88
83102;SHT31;72973;51.784;4.660;2024-01-25T07:18:50;4.93;83.94
83102;SHT31;72973;51.784;4.660;2024-01-25T07:21:16;5.03;83.82
83102;SHT31;72973;51.784;4.660;2024-01-25T07:23:43;5.17;84.03
83102;SHT31;72973;51.784;4.660;2024-01-25T07:26:16;5.16;83.82
83102;SHT31;72973;51.784;4.660;2024-01-25T07:28:43;5.19;83.48
83102;SHT31;72973;51.784;4.660;2024-01-25T07:31:09;5.14;83.16
83102;SHT31;72973;51.784;4.660;2024-01-25T07:33:36;5.07;83.08
83102;SHT31;72973;51.784;4.660;2024-01-25T07:36:03;5.07;82.75
83102;SHT31;72973;51.784;4.660;2024-01-25T07:38:29;5.00;82.52
83102;SHT31;72973;51.784;4.660;2024-01-25T07:40:56;4.96;82.66
83102;SHT31;72973;51.784;4.660;2024-01-25T07:43:22;4.93;83.41
83102;SHT31;72973;51.784;4.660;2024-01-25T07:45:49;5.06;83.85
83102;SHT31;72973;51.784;4.660;2024-01-25T07:48:15;5.17;83.72
83102;SHT31;72973;51.784;4.660;2024-01-25T07:50:42;5.41;84.48
83102;SHT31;72973;51.784;4.660;2024-01-25T07:53:08;5.65;84.16
83102;SHT31;72973;51.784;4.660;2024-01-25T07:55:35;5.76;84.15
83102;SHT31;72973;51.784;4.660;2024-01-25T07:58:01;5.85;84.19
83102;SHT31;72973;51.784;4.660;2024-01-25T08:00:28;5.78;83.79
83102;SHT31;72973;51.784;4.660;2024-01-25T08:02:54;5.86;84.30
83102;SHT31;72973;51.784;4.660;2024-01-25T08:05:21;6.00;84.34
83102;SHT31;72973;51.784;4.660;2024-01-25T08:07:48;6.07;83.92
83102;SHT31;72973;51.784;4.660;2024-01-25T08:10:15;6.02;83.59
83102;SHT31;72973;51.784;4.660;2024-01-25T08:12:42;6.06;83.21
83102;SHT31;72973;51.784;4.660;2024-01-25T08:15:10;6.00;82.93
83102;SHT31;72973;51.784;4.660;2024-01-25T08:17:37;6.03;83.06
83102;SHT31;72973;51.784;4.660;2024-01-25T08:20:04;6.19;83.35
83102;SHT31;72973;51.784;4.660;2024-01-25T08:22:35;6.36;83.50
83102;SHT31;72973;51.784;4.660;2024-01-25T08:25:01;6.36;83.66
83102;SHT31;72973;51.784;4.660;2024-01-25T08:27:28;6.38;83.34
83102;SHT31;72973;51.784;4.660;2024-01-25T08:29:55;6.36;82.91
83102;SHT31;72973;51.784;4.660;2024-01-25T08:32:21;6.29;82.62
83102;SHT31;72973;51.784;4.660;2024-01-25T08:34:48;6.26;82.52
83102;SHT31;72973;51.784;4.660;2024-01-25T08:37:14;6.31;83.04
83102;SHT31;72973;51.784;4.660;2024-01-25T08:39:41;6.40;83.00
83102;SHT31;72973;51.784;4.660;2024-01-25T08:42:09;6.57;82.92
83102;SHT31;72973;51.784;4.660;2024-01-25T08:44:38;6.58;82.77
83102;SHT31;72973;51.784;4.660;2024-01-25T08:47:05;6.59;82.72
83102;SHT31;72973;51.784;4.660;2024-01-25T08:49:31;6.65;82.68
83102;SHT31;72973;51.784;4.660;2024-01-25T08:51:58;6.63;82.88
83102;SHT31;72973;51.784;4.660;2024-01-25T08:54:24;6.78;82.84
83102;SHT31;72973;51.784;4.660;2024-01-25T08:56:50;6.81;82.79
83102;SHT31;72973;51.784;4.660;2024-01-25T08:59:17;6.86;82.73
83102;SHT31;72973;51.784;4.660;2024-01-25T09:01:43;6.85;82.80
83102;SHT31;72973;51.784;4.660;2024-01-25T09:04:10;6.93;83.12
83102;SHT31;72973;51.784;4.660;2024-01-25T09:06:36;6.92;83.14
83102;SHT31;72973;51.784;4.660;2024-01-25T09:09:03;7.05;83.19
83102;SHT31;72973;51.784;4.660;2024-01-25T09:11:29;7.16;83.00
83102;SHT31;72973;51.784;4.660;2024-01-25T09:13:56;7.23;83.12
83102;SHT31;72973;51.784;4.660;2024-01-25T09:16:23;7.27;82.82
83102;SHT31;72973;51.784;4.660;2024-01-25T09:18:49;7.28;83.02
83102;SHT31;72973;51.784;4.660;2024-01-25T09:21:16;7.37;83.12
83102;SHT31;72973;51.784;4.660;2024-01-25T09:23:42;7.36;83.10
83102;SHT31;72973;51.784;4.660;2024-01-25T09:26:09;7.53;83.04
83102;SHT31;72973;51.784;4.660;2024-01-25T09:28:35;7.65;82.98
83102;SHT31;72973;51.784;4.660;2024-01-25T09:31:02;7.72;82.63
83102;SHT31;72973;51.784;4.660;2024-01-25T09:33:29;7.68;82.49
83102;SHT31;72973;51.784;4.660;2024-01-25T09:35:56;7.75;82.59
83102;SHT31;72973;51.784;4.660;2024-01-25T09:38:23;7.81;82.74
83102;SHT31;72973;51.784;4.660;2024-01-25T09:40:49;7.81;82.58
83102;SHT31;72973;51.784;4.660;2024-01-25T09:43:18;7.88;82.53
83102;SHT31;72973;51.784;4.660;2024-01-25T09:45:48;7.92;82.59
83102;SHT31;72973;51.784;4.660;2024-01-25T09:48:16;7.98;82.83
83102;SHT31;72973;51.784;4.660;2024-01-25T09:50:46;8.06;82.77
83102;SHT31;72973;51.784;4.660;2024-01-25T09:53:20;8.14;82.64
83102;SHT31;72973;51.784;4.660;2024-01-25T09:56:07;8.26;82.50
83102;SHT31;72973;51.784;4.660;2024-01-25T10:01:10;8.40;82.47
83102;SHT31;72973;51.784;4.660;2024-01-25T10:03:46;8.51;82.00
83102;SHT31;72973;51.784;4.660;2024-01-25T10:06:15;8.46;82.01
83102;SHT31;72973;51.784;4.660;2024-01-25T10:08:42;8.36;82.30
83102;SHT31;72973;51.784;4.660;2024-01-25T10:11:08;8.40;82.50
83102;SHT31;72973;51.784;4.660;2024-01-25T10:13:48;8.46;82.38
83102;SHT31;72973;51.784;4.660;2024-01-25T10:16:18;8.47;82.48
83102;SHT31;72973;51.784;4.660;2024-01-25T10:18:47;8.44;82.79
83102;SHT31;72973;51.784;4.660;2024-01-25T10:21:15;8.51;82.30
83102;SHT31;72973;51.784;4.660;2024-01-25T10:23:44;8.67;82.34
83102;SHT31;72973;51.784;4.660;2024-01-25T10:26:12;8.74;82.26
83102;SHT31;72973;51.784;4.660;2024-01-25T10:28:39;8.71;82.09
83102;SHT31;72973;51.784;4.660;2024-01-25T10:31:06;8.79;82.15
83102;SHT31;72973;51.784;4.660;2024-01-25T10:33:33;8.82;81.89
83102;SHT31;72973;51.784;4.660;2024-01-25T10:36:01;8.84;81.89
83102;SHT31;72973;51.784;4.660;2024-01-25T10:38:30;8.95;81.86
83102;SHT31;72973;51.784;4.660;2024-01-25T10:40:59;9.11;81.50
83102;SHT31;72973;51.784;4.660;2024-01-25T10:43:28;9.11;81.34
83102;SHT31;72973;51.784;4.660;2024-01-25T10:45:57;9.11;81.77
83102;SHT31;72973;51.784;4.660;2024-01-25T10:48:25;9.19;81.68
83102;SHT31;72973;51.784;4.660;2024-01-25T10:50:56;9.16;81.36
83102;SHT31;72973;51.784;4.660;2024-01-25T10:53:24;9.22;81.17
83102;SHT31;72973;51.784;4.660;2024-01-25T10:55:51;9.23;80.95
83102;SHT31;72973;51.784;4.660;2024-01-25T10:58:18;9.29;81.11
83102;SHT31;72973;51.784;4.660;2024-01-25T11:00:52;9.37;81.30
83102;SHT31;72973;51.784;4.660;2024-01-25T11:03:26;9.56;80.69
83102;SHT31;72973;51.784;4.660;2024-01-25T11:06:10;9.56;80.62
83102;SHT31;72973;51.784;4.660;2024-01-25T11:08:38;9.64;80.98
83102;SHT31;72973;51.784;4.660;2024-01-25T11:11:12;9.73;80.60
83102;SHT31;72973;51.784;4.660;2024-01-25T11:13:43;9.75;80.03
83102;SHT31;72973;51.784;4.660;2024-01-25T11:16:15;9.75;79.94
83102;SHT31;72973;51.784;4.660;2024-01-25T11:18:55;9.80;79.68
83102;SHT31;72973;51.784;4.660;2024-01-25T11:21:41;9.80;80.03
83102;SHT31;72973;51.784;4.660;2024-01-25T11:24:22;9.84;79.76
83102;SHT31;72973;51.784;4.660;2024-01-25T11:26:50;9.85;79.91
83102;SHT31;72973;51.784;4.660;2024-01-25T11:29:18;9.83;79.57
83102;SHT31;72973;51.784;4.660;2024-01-25T11:31:48;9.85;79.44
83102;SHT31;72973;51.784;4.660;2024-01-25T11:34:16;9.90;79.56
83102;SHT31;72973;51.784;4.660;2024-01-25T11:36:44;9.99;79.33
83102;SHT31;72973;51.784;4.660;2024-01-25T11:39:13;10.06;79.19
83102;SHT31;72973;51.784;4.660;2024-01-25T11:41:43;10.16;78.97
83102;SHT31;72973;51.784;4.660;2024-01-25T11:44:11;10.18;78.45
83102;SHT31;72973;51.784;4.660;2024-01-25T11:46:37;10.23;78.67
83102;SHT31;72973;51.784;4.660;2024-01-25T11:49:04;10.33;78.51
83102;SHT31;72973;51.784;4.660;2024-01-25T11:51:30;10.29;77.93
83102;SHT31;72973;51.784;4.660;2024-01-25T11:54:00;10.22;77.88
83102;SHT31;72973;51.784;4.660;2024-01-25T11:56:31;10.29;77.94
83102;SHT31;72973;51.784;4.660;2024-01-25T11:59:00;10.32;77.67
83102;SHT31;72973;51.784;4.660;2024-01-25T12:01:29;10.33;77.97
83102;SHT31;72973;51.784;4.660;2024-01-25T12:03:56;10.46;77.52
83102;SHT31;72973;51.784;4.660;2024-01-25T12:06:23;10.55;77.04
83102;SHT31;72973;51.784;4.660;2024-01-25T12:08:50;10.56;76.78
83102;SHT31;72973;51.784;4.660;2024-01-25T12:11:17;10.67;76.77
83102;SHT31;72973;51.784;4.660;2024-01-25T12:13:45;10.74;76.40
83102;SHT31;72973;51.784;4.660;2024-01-25T12:16:12;10.73;76.56
83102;SHT31;72973;51.784;4.660;2024-01-25T12:18:41;10.76;76.76
83102;SHT31;72973;51.784;4.660;2024-01-25T12:21:08;10.77;76.47
83102;SHT31;72973;51.784;4.660;2024-01-25T12:23:36;10.79;76.02
83102;SHT31;72973;51.784;4.660;2024-01-25T12:26:07;10.73;76.07
83102;SHT31;72973;51.784;4.660;2024-01-25T12:28:35;10.77;76.35
83102;SHT31;72973;51.784;4.660;2024-01-25T12:31:03;10.85;75.96
83102;SHT31;72973;51.784;4.660;2024-01-25T12:33:31;10.94;76.30
83102;SHT31;72973;51.784;4.660;2024-01-25T12:35:58;11.07;75.76
83102;SHT31;72973;51.784;4.660;2024-01-25T12:38:25;11.11;75.63
83102;SHT31;72973;51.784;4.660;2024-01-25T12:40:52;11.01;76.27
83102;SHT31;72973;51.784;4.660;2024-01-25T12:43:19;11.03;76.41
83102;SHT31;72973;51.784;4.660;2024-01-25T12:45:47;11.12;76.08
83102;SHT31;72973;51.784;4.660;2024-01-25T12:48:14;11.08;75.87
83102;SHT31;72973;51.784;4.660;2024-01-25T12:50:41;11.15;76.13
83102;SHT31;72973;51.784;4.660;2024-01-25T12:53:10;11.10;76.36
83102;SHT31;72973;51.784;4.660;2024-01-25T12:55:37;11.06;76.36
83102;SHT31;72973;51.784;4.660;2024-01-25T12:58:04;11.17;75.99
83102;SHT31;72973;51.784;4.660;2024-01-25T13:00:31;11.21;76.03
83102;SHT31;72973;51.784;4.660;2024-01-25T13:02:59;11.21;76.41
83102;SHT31;72973;51.784;4.660;2024-01-25T13:05:27;11.27;76.29
83102;SHT31;72973;51.784;4.660;2024-01-25T13:07:54;11.32;76.13
83102;SHT31;72973;51.784;4.660;2024-01-25T13:10:22;11.39;76.02
83102;SHT31;72973;51.784;4.660;2024-01-25T13:12:48;11.48;75.98
83102;SHT31;72973;51.784;4.660;2024-01-25T13:15:14;11.51;76.13
83102;SHT31;72973;51.784;4.660;2024-01-25T13:17:41;11.51;76.06
83102;SHT31;72973;51.784;4.660;2024-01-25T13:20:08;11.48;76.29
83102;SHT31;72973;51.784;4.660;2024-01-25T13:22:35;11.29;76.67
83102;SHT31;72973;51.784;4.660;2024-01-25T13:25:03;11.25;76.83
83102;SHT31;72973;51.784;4.660;2024-01-25T13:27:30;11.14;77.39
83102;SHT31;72973;51.784;4.660;2024-01-25T13:29:56;11.27;77.28
83102;SHT31;72973;51.784;4.660;2024-01-25T13:32:23;11.15;77.80
83102;SHT31;72973;51.784;4.660;2024-01-25T13:34:52;11.18;78.34
83102;SHT31;72973;51.784;4.660;2024-01-25T13:37:19;11.25;78.57
83102;SHT31;72973;51.784;4.660;2024-01-25T13:39:45;11.06;79.32
83102;SHT31;72973;51.784;4.660;2024-01-25T13:42:12;11.00;79.69
83102;SHT31;72973;51.784;4.660;2024-01-25T13:44:38;11.00;80.20
83102;SHT31;72973;51.784;4.660;2024-01-25T13:47:05;11.00;80.24
83102;SHT31;72973;51.784;4.660;2024-01-25T13:49:31;10.91;80.44
83102;SHT31;72973;51.784;4.660;2024-01-25T13:52:01;10.96;80.31
83102;SHT31;72973;51.784;4.660;2024-01-25T13:54:30;10.93;80.56
83102;SHT31;72973;51.784;4.660;2024-01-25T13:56:56;10.93;80.57
83102;SHT31;72973;51.784;4.660;2024-01-25T13:59:23;10.90;80.47
83102;SHT31;72973;51.784;4.660;2024-01-25T14:01:51;10.83;80.61
83102;SHT31;72973;51.784;4.660;2024-01-25T14:04:18;10.71;81.19
83102;SHT31;72973;51.784;4.660;2024-01-25T14:06:45;10.67;81.28
83102;SHT31;72973;51.784;4.660;2024-01-25T14:09:11;10.66;81.28
83102;SHT31;72973;51.784;4.660;2024-01-25T14:11:38;10.67;81.28
83102;SHT31;72973;51.784;4.660;2024-01-25T14:14:04;10.66;81.37
83102;SHT31;72973;51.784;4.660;2024-01-25T14:16:31;10.66;81.50
83102;SHT31;72973;51.784;4.660;2024-01-25T14:18:57;10.66;81.56
83102;SHT31;72973;51.784;4.660;2024-01-25T14:21:24;10.66;81.61
83102;SHT31;72973;51.784;4.660;2024-01-25T14:23:51;10.73;81.47
83102;SHT31;72973;51.784;4.660;2024-01-25T14:26:18;10.85;81.27
83102;SHT31;72973;51.784;4.660;2024-01-25T14:28:44;10.80;80.87
83102;SHT31;72973;51.784;4.660;2024-01-25T14:31:11;10.66;81.37
83102;SHT31;72973;51.784;4.660;2024-01-25T14:33:37;10.67;81.29
83102;SHT31;72973;51.784;4.660;2024-01-25T14:36:04;10.67;81.31
83102;SHT31;72973;51.784;4.660;2024-01-25T14:38:31;10.63;81.27
83102;SHT31;72973;51.784;4.660;2024-01-25T14:40:58;10.55;81.38
83102;SHT31;72973;51.784;4.660;2024-01-25T14:43:24;10.50;81.63
83102;SHT31;72973;51.784;4.660;2024-01-25T14:45:52;10.48;81.76
83102;SHT31;72973;51.784;4.660;2024-01-25T14:48:19;10.57;81.52
83102;SHT31;72973;51.784;4.660;2024-01-25T14:50:46;10.49;81.90
83102;SHT31;72973;51.784;4.660;2024-01-25T14:53:12;10.50;81.66
83102;SHT31;72973;51.784;4.660;2024-01-25T14:55:39;10.50;81.84
83102;SHT31;72973;51.784;4.660;2024-01-25T14:58:06;10.48;81.75
83102;SHT31;72973;51.784;4.660;2024-01-25T15:00:34;10.45;81.92
83102;SHT31;72973;51.784;4.660;2024-01-25T15:03:01;10.36;82.01
83102;SHT31;72973;51.784;4.660;2024-01-25T15:05:27;10.35;82.42
83102;SHT31;72973;51.784;4.660;2024-01-25T15:07:54;10.31;82.62
83102;SHT31;72973;51.784;4.660;2024-01-25T15:10:20;10.22;82.60
83102;SHT31;72973;51.784;4.660;2024-01-25T15:12:47;10.16;82.93
83102;SHT31;72973;51.784;4.660;2024-01-25T15:15:14;10.16;83.08
83102;SHT31;72973;51.784;4.660;2024-01-25T15:17:41;10.21;82.92
83102;SHT31;72973;51.784;4.660;2024-01-25T15:20:08;10.15;83.06
83102;SHT31;72973;51.784;4.660;2024-01-25T15:22:34;10.06;83.15
83102;SHT31;72973;51.784;4.660;2024-01-25T15:25:01;10.09;83.31
83102;SHT31;72973;51.784;4.660;2024-01-25T15:27:27;10.12;83.24
83102;SHT31;72973;51.784;4.660;2024-01-25T15:29:54;10.08;83.45
83102;SHT31;72973;51.784;4.660;2024-01-25T15:32:20;10.06;83.56
83102;SHT31;72973;51.784;4.660;2024-01-25T15:34:47;10.05;83.71
83102;SHT31;72973;51.784;4.660;2024-01-25T15:37:13;10.06;83.68
83102;SHT31;72973;51.784;4.660;2024-01-25T15:39:40;10.06;83.71
83102;SHT31;72973;51.784;4.660;2024-01-25T15:42:07;10.08;83.61
83102;SHT31;72973;51.784;4.660;2024-01-25T15:44:33;10.02;83.87